createdAt,value
2023-03-04T00:00:35.875Z,4.30
2023-03-04T00:03:23.316Z,4.30
2023-03-04T00:05:52.063Z,4.30
2023-03-04T00:08:20.299Z,4.30
2023-03-04T00:10:48.750Z,4.30
2023-03-04T00:13:17.149Z,4.30
2023-03-04T00:15:46.936Z,4.30
2023-03-04T00:18:15.219Z,4.20
2023-03-04T00:20:43.663Z,4.20
2023-03-04T00:23:12.080Z,4.20
2023-03-04T00:25:43.486Z,4.10
2023-03-04T00:28:11.970Z,4.10
2023-03-04T00:30:40.410Z,4.00
2023-03-04T00:33:09.943Z,4.00
2023-03-04T00:35:38.503Z,3.90
2023-03-04T00:38:06.953Z,3.90
2023-03-04T00:40:35.505Z,3.80
2023-03-04T00:43:04.195Z,3.80
2023-03-04T00:45:32.729Z,3.70
2023-03-04T00:48:00.989Z,3.70
2023-03-04T00:50:30.932Z,3.60
2023-03-04T00:52:59.138Z,3.60
2023-03-04T00:55:27.929Z,3.60
2023-03-04T00:57:56.311Z,3.60
2023-03-04T01:00:24.977Z,3.60
2023-03-04T01:02:53.185Z,3.70
2023-03-04T01:05:21.797Z,3.70
2023-03-04T01:07:51.427Z,3.70
2023-03-04T01:10:20.428Z,3.80
2023-03-04T01:12:48.643Z,3.80
2023-03-04T01:15:17.323Z,3.90
2023-03-04T01:17:45.929Z,3.90
2023-03-04T01:20:14.844Z,3.90
2023-03-04T01:22:43.326Z,4.00
2023-03-04T01:25:13.257Z,4.00
2023-03-04T01:27:41.459Z,4.00
2023-03-04T01:30:11.478Z,4.00
2023-03-04T01:32:39.600Z,4.10
2023-03-04T01:35:08.682Z,4.10
2023-03-04T01:37:36.975Z,4.10
2023-03-04T01:40:06.577Z,4.20
2023-03-04T01:42:37.647Z,4.20
2023-03-04T01:45:08.008Z,4.20
2023-03-04T01:47:36.738Z,4.20
2023-03-04T01:50:12.332Z,4.20
2023-03-04T01:52:42.916Z,4.30
2023-03-04T01:55:17.399Z,4.30
2023-03-04T01:57:48.467Z,4.30
2023-03-04T02:00:28.496Z,4.30
2023-03-04T02:03:00.642Z,4.30
2023-03-04T02:05:30.648Z,4.30
2023-03-04T02:08:01.580Z,4.30
2023-03-04T02:10:30.230Z,4.40
2023-03-04T02:13:00.441Z,4.30
2023-03-04T02:15:29.736Z,4.30
2023-03-04T02:17:58.402Z,4.40
2023-03-04T02:20:41.555Z,4.40
2023-03-04T02:23:18.256Z,4.40
2023-03-04T02:25:51.475Z,4.40
2023-03-04T02:28:21.728Z,4.40
2023-03-04T02:30:50.274Z,4.40
2023-03-04T02:33:19.911Z,4.40
2023-03-04T02:35:48.673Z,4.40
2023-03-04T02:38:17.105Z,4.40
2023-03-04T02:40:50.547Z,4.40
2023-03-04T02:43:20.111Z,4.40
2023-03-04T02:45:50.653Z,4.40
2023-03-04T02:48:21.092Z,4.40
2023-03-04T02:50:52.726Z,4.40
2023-03-04T02:53:22.017Z,4.50
2023-03-04T02:55:50.797Z,4.50
2023-03-04T02:58:20.422Z,4.40
2023-03-04T03:00:48.926Z,4.40
2023-03-04T03:03:17.390Z,4.50
2023-03-04T03:05:47.315Z,4.40
2023-03-04T03:08:15.528Z,4.50
2023-03-04T03:10:44.244Z,4.50
2023-03-04T03:13:12.586Z,4.50
2023-03-04T03:15:42.712Z,4.50
2023-03-04T03:18:11.240Z,4.50
2023-03-04T03:20:39.749Z,4.50
2023-03-04T03:23:08.063Z,4.50
2023-03-04T03:25:36.724Z,4.50
2023-03-04T03:28:05.253Z,4.50
2023-03-04T03:30:34.012Z,4.50
2023-03-04T03:33:03.522Z,4.50
2023-03-04T03:35:32.392Z,4.50
2023-03-04T03:38:00.676Z,4.50
2023-03-04T03:40:29.135Z,4.50
2023-03-04T03:42:57.324Z,4.50
2023-03-04T03:45:25.850Z,4.50
2023-03-04T03:47:54.198Z,4.50
2023-03-04T03:50:25.663Z,4.50
2023-03-04T03:52:53.839Z,4.50
2023-03-04T03:55:22.432Z,4.50
2023-03-04T03:57:50.695Z,4.50
2023-03-04T04:00:20.052Z,4.50
2023-03-04T04:02:48.359Z,4.50
2023-03-04T04:05:17.776Z,4.50
2023-03-04T04:07:47.384Z,4.50
2023-03-04T04:10:15.938Z,4.50
2023-03-04T04:12:44.178Z,4.50
2023-03-04T04:15:13.307Z,4.50
2023-03-04T04:17:41.643Z,4.50
2023-03-04T04:20:11.353Z,4.40
2023-03-04T04:22:39.616Z,4.50
2023-03-04T04:25:10.634Z,4.50
2023-03-04T04:27:39.260Z,4.50
2023-03-04T04:30:08.676Z,4.50
2023-03-04T04:32:36.936Z,4.50
2023-03-04T04:35:06.026Z,4.50
2023-03-04T04:37:34.340Z,4.50
2023-03-04T04:40:02.851Z,4.50
2023-03-04T04:42:32.482Z,4.50
2023-03-04T04:45:00.921Z,4.50
2023-03-04T04:47:29.375Z,4.50
2023-03-04T04:49:57.873Z,4.50
2023-03-04T04:52:26.082Z,4.40
2023-03-04T04:54:54.592Z,4.40
2023-03-04T04:57:22.857Z,4.50
2023-03-04T04:59:52.807Z,4.40
2023-03-04T05:02:21.156Z,4.40
2023-03-04T05:04:49.710Z,4.50
2023-03-04T05:07:17.923Z,4.40
2023-03-04T05:09:46.755Z,4.40
2023-03-04T05:12:15.024Z,4.40
2023-03-04T05:14:43.552Z,4.50
2023-03-04T05:17:13.168Z,4.50
2023-03-04T05:19:41.620Z,4.50
2023-03-04T05:22:10.092Z,4.50
2023-03-04T05:24:38.554Z,4.50
2023-03-04T05:27:06.888Z,4.50
2023-03-04T05:29:35.425Z,4.50
2023-03-04T05:32:03.678Z,4.50
2023-03-04T05:34:33.532Z,4.50
2023-03-04T05:37:01.791Z,4.50
2023-03-04T05:39:30.319Z,4.50
2023-03-04T05:41:58.646Z,4.50
2023-03-04T05:44:27.346Z,4.50
2023-03-04T05:46:55.646Z,4.50
2023-03-04T05:49:24.211Z,4.50
2023-03-04T05:51:54.710Z,4.50
2023-03-04T05:54:23.255Z,4.60
2023-03-04T05:56:51.404Z,4.60
2023-03-04T05:59:20.854Z,4.60
2023-03-04T06:01:49.325Z,4.60
2023-03-04T06:04:18.014Z,4.60
2023-03-04T06:06:47.443Z,4.60
2023-03-04T06:09:17.486Z,4.70
2023-03-04T06:11:45.732Z,4.50
2023-03-04T06:14:14.387Z,4.60
2023-03-04T06:16:42.836Z,4.60
2023-03-04T06:19:11.493Z,4.60
2023-03-04T06:21:39.760Z,4.60
2023-03-04T06:24:08.518Z,4.60
2023-03-04T06:26:38.145Z,4.60
2023-03-04T06:29:06.773Z,4.60
2023-03-04T06:31:35.070Z,4.70
2023-03-04T06:34:03.704Z,4.70
2023-03-04T06:36:32.217Z,4.70
2023-03-04T06:39:00.757Z,4.70
2023-03-04T06:41:29.000Z,4.70
2023-03-04T06:43:58.988Z,4.80
2023-03-04T06:46:30.062Z,4.80
2023-03-04T06:48:59.028Z,4.80
2023-03-04T06:51:27.695Z,4.80
2023-03-04T06:53:56.392Z,4.80
2023-03-04T06:56:24.631Z,4.80
2023-03-04T06:58:53.511Z,4.80
2023-03-04T07:01:26.079Z,4.90
2023-03-04T07:03:55.959Z,4.90
2023-03-04T07:06:27.364Z,4.90
2023-03-04T07:08:55.980Z,4.90
2023-03-04T07:11:24.420Z,4.90
2023-03-04T07:13:53.219Z,4.90
2023-03-04T07:16:24.261Z,5.00
2023-03-04T07:18:52.908Z,4.90
2023-03-04T07:21:21.221Z,4.90
2023-03-04T07:23:50.024Z,4.90
2023-03-04T07:26:19.018Z,4.90
2023-03-04T07:28:47.818Z,4.90
2023-03-04T07:31:24.470Z,4.90
2023-03-04T07:33:53.158Z,4.90
2023-03-04T07:36:21.735Z,4.90
2023-03-04T07:38:51.759Z,4.90
2023-03-04T07:41:20.203Z,4.90
2023-03-04T07:43:49.346Z,4.90
2023-03-04T07:46:18.136Z,4.90
2023-03-04T07:48:48.339Z,4.90
2023-03-04T07:51:18.441Z,4.90
2023-03-04T07:53:48.486Z,4.90
2023-03-04T07:56:19.497Z,4.90
2023-03-04T07:58:48.610Z,4.90
2023-03-04T08:01:19.139Z,4.90
2023-03-04T08:03:49.209Z,5.00
2023-03-04T08:06:19.484Z,5.00
2023-03-04T08:08:48.899Z,5.00
2023-03-04T08:11:19.703Z,5.00
2023-03-04T08:13:48.757Z,5.00
2023-03-04T08:16:19.619Z,5.10
2023-03-04T08:18:53.928Z,5.00
2023-03-04T08:21:24.204Z,5.10
2023-03-04T08:23:53.480Z,5.10
2023-03-04T08:26:23.992Z,5.10
2023-03-04T08:28:53.108Z,5.10
2023-03-04T08:31:21.993Z,5.10
2023-03-04T08:33:53.064Z,5.10
2023-03-04T08:36:22.171Z,5.10
2023-03-04T08:38:50.784Z,5.20
2023-03-04T08:41:19.064Z,5.20
2023-03-04T08:43:47.667Z,5.20
2023-03-04T08:46:16.058Z,5.20
2023-03-04T08:48:44.580Z,5.20
2023-03-04T08:51:17.115Z,5.20
2023-03-04T08:53:46.252Z,5.30
2023-03-04T08:56:15.460Z,5.30
2023-03-04T08:58:44.131Z,5.40
2023-03-04T09:01:14.825Z,5.40
2023-03-04T09:03:44.028Z,5.50
2023-03-04T09:06:16.685Z,5.40
2023-03-04T09:08:45.600Z,5.50
2023-03-04T09:11:14.353Z,5.50
2023-03-04T09:13:42.917Z,5.60
2023-03-04T09:16:12.534Z,5.60
2023-03-04T09:18:42.201Z,5.60
2023-03-04T09:21:11.367Z,5.60
2023-03-04T09:23:41.387Z,5.60
2023-03-04T09:26:18.589Z,5.60
2023-03-04T09:28:47.112Z,5.50
2023-03-04T09:31:16.313Z,5.50
2023-03-04T09:33:44.942Z,5.50
2023-03-04T09:36:15.723Z,5.40
2023-03-04T09:38:45.810Z,5.40
2023-03-04T09:41:19.505Z,5.30
2023-03-04T09:43:49.535Z,5.20
2023-03-04T09:46:23.866Z,5.10
2023-03-04T09:48:55.842Z,5.10
2023-03-04T09:51:31.653Z,5.10
2023-03-04T09:54:08.755Z,5.10
2023-03-04T09:56:39.476Z,5.20
2023-03-04T09:59:18.204Z,5.20
2023-03-04T10:01:51.805Z,5.20
2023-03-04T10:04:32.442Z,5.30
2023-03-04T10:07:02.338Z,5.40
2023-03-04T10:09:45.017Z,5.40
2023-03-04T10:12:18.447Z,5.50
2023-03-04T10:14:52.705Z,5.60
2023-03-04T10:17:24.975Z,5.70
2023-03-04T10:19:58.055Z,5.80
2023-03-04T10:22:33.650Z,5.90
2023-03-04T10:25:16.641Z,6.00
2023-03-04T10:27:49.650Z,6.20
2023-03-04T10:30:27.429Z,6.30
2023-03-04T10:32:55.869Z,6.50
2023-03-04T10:35:34.222Z,6.60
2023-03-04T10:38:04.649Z,6.80
2023-03-04T10:40:39.852Z,6.90
2023-03-04T10:43:16.429Z,7.10
2023-03-04T10:45:45.653Z,7.30
2023-03-04T10:48:23.738Z,7.40
2023-03-04T10:50:52.376Z,7.50
2023-03-04T10:53:34.501Z,7.60
2023-03-04T10:56:04.428Z,7.80
2023-03-04T10:58:32.905Z,7.90
2023-03-04T11:01:06.257Z,8.00
2023-03-04T11:03:37.508Z,8.10
2023-03-04T11:06:17.977Z,8.10
2023-03-04T11:08:54.091Z,8.10
2023-03-04T11:11:34.606Z,8.00
2023-03-04T11:14:19.251Z,7.90
2023-03-04T11:16:55.768Z,7.80
2023-03-04T11:19:26.451Z,7.70
2023-03-04T11:21:56.498Z,7.70
2023-03-04T11:24:29.793Z,7.70
2023-03-04T11:27:05.691Z,7.70
2023-03-04T11:29:39.333Z,7.70
2023-03-04T11:32:14.273Z,7.80
2023-03-04T11:34:49.955Z,7.80
2023-03-04T11:37:25.426Z,7.70
2023-03-04T11:39:58.089Z,7.80
2023-03-04T11:42:37.207Z,7.80
2023-03-04T11:45:27.524Z,7.80
2023-03-04T11:48:08.998Z,7.80
2023-03-04T11:50:47.438Z,7.80
2023-03-04T11:53:32.887Z,7.90
2023-03-04T11:56:25.863Z,7.80
2023-03-04T11:59:19.334Z,7.80
2023-03-04T12:01:57.001Z,7.80
2023-03-04T12:04:41.771Z,7.80
2023-03-04T12:07:23.569Z,7.70
2023-03-04T12:10:05.405Z,7.70
2023-03-04T12:12:48.344Z,7.60
2023-03-04T12:15:23.945Z,7.50
2023-03-04T12:18:16.174Z,7.40
2023-03-04T12:20:58.514Z,7.30
2023-03-04T12:23:47.556Z,7.30
2023-03-04T12:26:30.123Z,7.30
2023-03-04T12:29:05.260Z,7.20
2023-03-04T12:31:43.504Z,7.20
2023-03-04T12:34:36.867Z,7.10
2023-03-04T12:37:23.351Z,7.10
2023-03-04T12:40:07.008Z,7.10
2023-03-04T12:42:44.579Z,7.00
2023-03-04T12:45:21.470Z,7.00
2023-03-04T12:48:03.306Z,7.00
2023-03-04T12:50:42.968Z,7.00
2023-03-04T12:53:22.437Z,6.90
2023-03-04T12:55:52.060Z,6.80
2023-03-04T12:58:24.920Z,6.70
2023-03-04T13:00:59.645Z,6.70
2023-03-04T13:03:39.781Z,6.70
2023-03-04T13:06:18.492Z,6.60
2023-03-04T13:09:00.686Z,6.50
2023-03-04T13:11:54.850Z,6.40
2023-03-04T13:14:35.355Z,6.30
2023-03-04T13:17:25.367Z,6.30
2023-03-04T13:19:59.794Z,6.30
2023-03-04T13:22:35.375Z,6.20
2023-03-04T13:25:32.496Z,6.20
2023-03-04T13:28:20.678Z,6.20
2023-03-04T13:31:21.968Z,6.20
2023-03-04T13:33:57.364Z,6.10
2023-03-04T13:37:03.758Z,6.20
2023-03-04T13:39:37.162Z,6.10
2023-03-04T13:42:42.217Z,6.20
2023-03-04T13:45:33.728Z,6.10
2023-03-04T13:48:03.702Z,6.10
2023-03-04T13:50:45.859Z,6.00
2023-03-04T13:53:39.041Z,6.00
2023-03-04T13:56:31.382Z,6.00
2023-03-04T13:59:12.554Z,6.00
2023-03-04T14:01:57.362Z,6.00
2023-03-04T14:04:30.329Z,6.10
2023-03-04T14:07:00.976Z,6.10
2023-03-04T14:09:32.480Z,6.10
2023-03-04T14:12:03.937Z,6.10
2023-03-04T14:14:48.816Z,6.00
2023-03-04T14:17:21.050Z,6.10
2023-03-04T14:19:53.638Z,6.10
2023-03-04T14:22:25.301Z,6.20
2023-03-04T14:25:00.047Z,6.20
2023-03-04T14:27:28.532Z,6.30
2023-03-04T14:29:58.142Z,6.30
2023-03-04T14:32:27.898Z,6.30
2023-03-04T14:35:00.385Z,6.30
2023-03-04T14:37:35.205Z,6.20
2023-03-04T14:40:06.359Z,6.20
2023-03-04T14:42:40.118Z,6.20
2023-03-04T14:45:11.715Z,6.20
2023-03-04T14:47:45.319Z,6.10
2023-03-04T14:50:16.772Z,6.00
2023-03-04T14:52:46.688Z,5.90
2023-03-04T14:55:24.197Z,5.90
2023-03-04T14:57:58.547Z,5.80
2023-03-04T15:00:30.611Z,5.70
2023-03-04T15:03:01.144Z,5.60
2023-03-04T15:05:31.431Z,5.50
2023-03-04T15:08:01.628Z,5.50
2023-03-04T15:10:33.933Z,5.40
2023-03-04T15:13:03.970Z,5.40
2023-03-04T15:15:39.864Z,5.30
2023-03-04T15:18:26.358Z,5.30
2023-03-04T15:20:58.134Z,5.30
2023-03-04T15:23:27.054Z,5.30
2023-03-04T15:25:59.458Z,5.20
2023-03-04T15:28:31.519Z,5.10
2023-03-04T15:31:00.201Z,5.10
2023-03-04T15:33:28.529Z,5.10
2023-03-04T15:35:59.502Z,5.10
2023-03-04T15:38:29.198Z,5.00
2023-03-04T15:41:00.139Z,5.00
2023-03-04T15:43:28.419Z,4.90
2023-03-04T15:45:56.962Z,4.90
2023-03-04T15:48:25.238Z,4.90
2023-03-04T15:50:57.433Z,4.80
2023-03-04T15:53:32.722Z,4.80
2023-03-04T15:56:03.937Z,4.70
2023-03-04T15:58:35.162Z,4.70
2023-03-04T16:01:04.871Z,4.60
2023-03-04T16:03:33.534Z,4.50
2023-03-04T16:06:02.237Z,4.50
2023-03-04T16:08:30.512Z,4.30
2023-03-04T16:10:59.013Z,4.30
2023-03-04T16:13:28.631Z,4.20
2023-03-04T16:15:57.681Z,4.20
2023-03-04T16:18:26.031Z,4.10
2023-03-04T16:20:54.705Z,4.00
2023-03-04T16:23:25.076Z,4.00
2023-03-04T16:25:57.050Z,3.90
2023-03-04T16:28:25.355Z,3.90
2023-03-04T16:30:55.424Z,3.80
2023-03-04T16:33:23.699Z,3.80
2023-03-04T16:35:52.500Z,3.80
2023-03-04T16:38:26.211Z,3.70
2023-03-04T16:40:56.068Z,3.70
2023-03-04T16:43:25.141Z,3.60
2023-03-04T16:45:55.047Z,3.60
2023-03-04T16:48:23.499Z,3.60
2023-03-04T16:50:52.457Z,3.50
2023-03-04T16:53:27.894Z,3.50
2023-03-04T16:55:58.827Z,3.40
2023-03-04T16:58:27.179Z,3.40
2023-03-04T17:00:57.197Z,3.40
2023-03-04T17:03:25.413Z,3.40
2023-03-04T17:05:53.965Z,3.30
2023-03-04T17:08:22.199Z,3.30
2023-03-04T17:10:50.706Z,3.20
2023-03-04T17:13:18.954Z,3.20
2023-03-04T17:15:47.535Z,3.20
2023-03-04T17:18:17.148Z,3.20
2023-03-04T17:20:45.742Z,3.20
2023-03-04T17:23:14.055Z,3.10
2023-03-04T17:25:42.609Z,3.10
2023-03-04T17:28:10.883Z,3.00
2023-03-04T17:30:39.574Z,3.00
2023-03-04T17:33:07.752Z,3.00
2023-03-04T17:35:39.987Z,2.90
2023-03-04T17:38:08.243Z,2.90
2023-03-04T17:40:36.962Z,2.80
2023-03-04T17:43:11.205Z,2.80
2023-03-04T17:45:39.869Z,2.80
2023-03-04T17:48:08.867Z,2.70
2023-03-04T17:50:38.720Z,2.70
2023-03-04T17:53:06.926Z,2.60
2023-03-04T17:55:35.362Z,2.60
2023-03-04T17:58:03.511Z,2.60
2023-03-04T18:00:32.163Z,2.50
2023-03-04T18:03:00.465Z,2.50
2023-03-04T18:05:29.040Z,2.40
2023-03-04T18:07:58.650Z,2.40
2023-03-04T18:10:27.690Z,2.40
2023-03-04T18:12:55.915Z,2.40
2023-03-04T18:15:24.454Z,2.40
2023-03-04T18:17:52.670Z,2.40
2023-03-04T18:20:21.224Z,2.40
2023-03-04T18:22:49.465Z,2.40
2023-03-04T18:25:19.490Z,2.40
2023-03-04T18:27:47.871Z,2.40
2023-03-04T18:30:17.827Z,2.30
2023-03-04T18:32:52.308Z,2.40
2023-03-04T18:35:21.379Z,2.30
2023-03-04T18:37:50.149Z,2.30
2023-03-04T18:40:20.269Z,2.30
2023-03-04T18:42:52.211Z,2.30
2023-03-04T18:45:21.512Z,2.30
2023-03-04T18:47:52.776Z,2.30
2023-03-04T18:50:22.104Z,2.20
2023-03-04T18:52:52.662Z,2.20
2023-03-04T18:55:23.819Z,2.20
2023-03-04T18:57:54.992Z,2.20
2023-03-04T19:00:25.418Z,2.10
2023-03-04T19:02:57.891Z,2.10
2023-03-04T19:05:29.140Z,2.00
2023-03-04T19:07:57.432Z,1.90
2023-03-04T19:10:28.956Z,1.80
2023-03-04T19:12:59.544Z,1.80
2023-03-04T19:15:28.616Z,1.70
2023-03-04T19:17:56.889Z,1.60
2023-03-04T19:20:25.463Z,1.60
2023-03-04T19:22:54.443Z,1.50
2023-03-04T19:25:25.587Z,1.50
2023-03-04T19:27:56.486Z,1.40
2023-03-04T19:30:25.117Z,1.40
2023-03-04T19:32:55.049Z,1.40
2023-03-04T19:35:26.306Z,1.30
2023-03-04T19:37:54.800Z,1.30
2023-03-04T19:40:24.701Z,1.30
2023-03-04T19:42:54.276Z,1.30
2023-03-04T19:45:22.910Z,1.20
2023-03-04T19:47:51.181Z,1.20
2023-03-04T19:50:19.876Z,1.10
2023-03-04T19:52:48.117Z,1.10
2023-03-04T19:55:16.705Z,1.10
2023-03-04T19:57:44.997Z,1.10
2023-03-04T20:00:15.807Z,1.00
2023-03-04T20:02:45.669Z,1.00
2023-03-04T20:05:14.539Z,1.00
2023-03-04T20:07:43.822Z,1.00
2023-03-04T20:10:14.457Z,0.90
2023-03-04T20:12:42.706Z,0.90
2023-03-04T20:15:11.899Z,0.90
2023-03-04T20:17:41.527Z,0.90
2023-03-04T20:20:12.522Z,0.90
2023-03-04T20:22:40.843Z,0.90
2023-03-04T20:25:10.070Z,0.80
2023-03-04T20:27:38.490Z,0.80
2023-03-04T20:30:07.895Z,0.80
2023-03-04T20:32:36.248Z,0.80
2023-03-04T20:35:06.948Z,0.70
2023-03-04T20:37:36.106Z,0.70
2023-03-04T20:40:05.008Z,0.70
2023-03-04T20:42:33.958Z,0.70
2023-03-04T20:45:02.419Z,0.70
2023-03-04T20:47:31.206Z,0.60
2023-03-04T20:49:59.706Z,0.60
2023-03-04T20:52:29.328Z,0.60
2023-03-04T20:54:57.856Z,0.60
2023-03-04T20:57:26.050Z,0.50
2023-03-04T20:59:54.693Z,0.50
2023-03-04T21:02:23.519Z,0.40
2023-03-04T21:04:52.460Z,0.40
2023-03-04T21:07:20.680Z,0.40
2023-03-04T21:09:50.704Z,0.30
2023-03-04T21:12:18.883Z,0.30
2023-03-04T21:14:47.505Z,0.20
2023-03-04T21:17:15.686Z,0.20
2023-03-04T21:19:44.622Z,0.10
2023-03-04T21:22:16.040Z,0.10
2023-03-04T21:24:45.558Z,0.10
2023-03-04T21:27:16.800Z,0.00
2023-03-04T21:29:45.891Z,0.00
2023-03-04T21:32:24.163Z,0.00
2023-03-04T21:34:54.911Z,0.00
2023-03-04T21:37:24.805Z,-0.10
2023-03-04T21:39:53.504Z,-0.10
2023-03-04T21:42:23.220Z,-0.10
2023-03-04T21:44:52.140Z,-0.20
2023-03-04T21:47:20.918Z,-0.20
2023-03-04T21:49:49.768Z,-0.20
2023-03-04T21:52:19.401Z,-0.30
2023-03-04T21:54:48.078Z,-0.30
2023-03-04T21:57:16.312Z,-0.40
2023-03-04T21:59:46.878Z,-0.40
2023-03-04T22:02:16.731Z,-0.40
2023-03-04T22:04:45.575Z,-0.40
2023-03-04T22:07:14.641Z,-0.40
2023-03-04T22:09:43.311Z,-0.40
2023-03-04T22:12:11.785Z,-0.50
2023-03-04T22:14:40.220Z,-0.50
2023-03-04T22:17:14.460Z,-0.50
2023-03-04T22:19:44.538Z,-0.50
2023-03-04T22:22:18.002Z,-0.50
2023-03-04T22:24:46.728Z,-0.50
2023-03-04T22:27:15.181Z,-0.60
2023-03-04T22:29:43.910Z,-0.60
2023-03-04T22:32:12.438Z,-0.60
2023-03-04T22:34:41.258Z,-0.60
2023-03-04T22:37:11.037Z,-0.60
2023-03-04T22:39:45.773Z,-0.70
2023-03-04T22:42:14.016Z,-0.70
2023-03-04T22:44:45.755Z,-0.80
2023-03-04T22:47:14.166Z,-0.70
2023-03-04T22:49:42.996Z,-0.80
2023-03-04T22:52:12.810Z,-0.80
2023-03-04T22:54:41.519Z,-0.80
2023-03-04T22:57:10.006Z,-0.80
2023-03-04T22:59:38.779Z,-0.80
2023-03-04T23:02:07.632Z,-0.80
2023-03-04T23:04:36.301Z,-0.80
2023-03-04T23:07:04.696Z,-0.80
2023-03-04T23:09:34.500Z,-0.90
2023-03-04T23:12:02.737Z,-0.90
2023-03-04T23:14:31.356Z,-0.90
2023-03-04T23:16:59.720Z,-1.00
2023-03-04T23:19:28.392Z,-1.10
2023-03-04T23:21:58.373Z,-1.00
2023-03-04T23:24:27.549Z,-1.10
2023-03-04T23:26:58.630Z,-1.10
2023-03-04T23:29:27.224Z,-1.20
2023-03-04T23:31:55.552Z,-1.20
2023-03-04T23:34:23.992Z,-1.20
2023-03-04T23:36:52.352Z,-1.20
2023-03-04T23:39:20.818Z,-1.20
2023-03-04T23:41:49.263Z,-1.20
2023-03-04T23:44:19.203Z,-1.20
2023-03-04T23:46:47.424Z,-1.20
2023-03-04T23:49:17.816Z,-1.20
2023-03-04T23:51:46.663Z,-1.30
2023-03-04T23:54:16.132Z,-1.30
2023-03-04T23:56:44.839Z,-1.30
2023-03-04T23:59:13.546Z,-1.30
